Time;durP1;ratioP1;P1;durP2;ratioP2;P2;SDS_P1;SDS_P2;PMS_P1;PMS_P2;Temp;Humidity;BMP_temperature;BMP_pressure;BME280_temperature;BME280_humidity;BME280_pressure;Samples;Min_cycle;Max_cycle;Signal;HPM_P1;HPM_P2
2022/10/05 00:00:58;;;;;;;3.60;2.40;;;;;;;10.74;83.94;101877.45;107179;1251;72025;-76
2022/10/05 00:03:39;;;;;;;4.30;2.50;;;;;;;10.74;83.15;101876.05;107178;1253;61687;-76
2022/10/05 00:06:11;;;;;;;4.70;2.70;;;;;;;10.74;83.23;101879.70;107341;1251;60486;-76
2022/10/05 00:08:40;;;;;;;5.00;2.50;;;;;;;10.76;82.43;101880.28;107234;1251;73332;-75
2022/10/05 00:11:13;;;;;;;4.80;2.30;;;;;;;10.75;82.21;101880.48;107265;1251;72676;-75
2022/10/05 00:13:42;;;;;;;3.20;2.10;;;;;;;10.75;81.50;101884.33;107298;1251;70436;-76
2022/10/05 00:16:16;;;;;;;3.70;2.10;;;;;;;10.72;80.94;101882.59;107426;1251;74319;-80
2022/10/05 00:18:52;;;;;;;5.00;2.20;;;;;;;10.74;80.53;101882.64;107378;1251;60989;-74
2022/10/05 00:21:25;;;;;;;3.90;2.20;;;;;;;10.74;80.38;101883.52;107810;1251;60751;-76
2022/10/05 00:23:57;;;;;;;3.60;2.10;;;;;;;10.78;80.10;101883.48;107402;1251;71464;-78
2022/10/05 00:26:30;;;;;;;3.10;2.30;;;;;;;10.82;80.07;101885.49;107180;1251;70702;-77
2022/10/05 00:29:01;;;;;;;3.80;2.30;;;;;;;10.84;79.87;101886.46;107315;1251;67936;-76
2022/10/05 00:31:34;;;;;;;4.60;2.30;;;;;;;10.84;79.39;101885.58;107217;1251;73836;-75
2022/10/05 00:34:03;;;;;;;3.00;2.20;;;;;;;10.86;79.35;101887.39;108115;1250;59125;-75
2022/10/05 00:36:31;;;;;;;6.50;2.40;;;;;;;10.85;79.01;101888.83;107328;1250;61315;-74
2022/10/05 00:39:02;;;;;;;4.70;2.40;;;;;;;10.83;79.34;101895.56;107335;1250;73951;-73
2022/10/05 00:42:24;;;;;;;4.00;2.30;;;;;;;10.82;79.25;101900.19;107274;1250;73205;-74
2022/10/05 00:45:06;;;;;;;7.00;2.20;;;;;;;10.81;78.99;101902.65;107208;1250;70225;-74
2022/10/05 00:47:56;;;;;;;3.40;2.10;;;;;;;10.81;79.01;101903.70;107147;1251;71948;-80
2022/10/05 00:50:51;;;;;;;5.00;2.30;;;;;;;10.81;78.91;101904.40;107156;1250;60613;-77
2022/10/05 00:53:42;;;;;;;3.50;2.30;;;;;;;10.81;78.21;101901.39;107253;1250;60879;-81
2022/10/05 00:56:25;;;;;;;4.50;2.50;;;;;;;10.83;77.66;101904.09;107196;1250;72802;-77
2022/10/05 00:59:27;;;;;;;4.00;2.40;;;;;;;10.87;77.81;101905.83;107281;1250;72457;-76
2022/10/05 01:02:06;;;;;;;3.50;2.30;;;;;;;10.89;77.60;101909.88;107233;1251;68556;-75
2022/10/05 01:04:58;;;;;;;5.50;2.40;;;;;;;10.92;77.56;101910.27;107163;1251;71492;-76
2022/10/05 01:08:01;;;;;;;5.80;2.50;;;;;;;10.94;77.92;101915.02;107083;1253;63558;-73
2022/10/05 01:10:48;;;;;;;5.10;2.40;;;;;;;10.96;77.67;101915.77;107187;1251;60380;-77
2022/10/05 01:13:28;;;;;;;5.20;2.80;;;;;;;11.00;77.12;101923.26;107293;1251;71096;-77
2022/10/05 01:16:21;;;;;;;3.70;2.50;;;;;;;10.99;76.77;101923.80;107246;1253;68683;-75
2022/10/05 01:19:00;;;;;;;4.40;2.50;;;;;;;10.96;77.06;101927.30;107162;1251;70678;-77
2022/10/05 01:21:35;;;;;;;5.90;2.60;;;;;;;10.94;76.91;101927.38;107139;1251;74726;-79
2022/10/05 01:24:40;;;;;;;3.50;2.50;;;;;;;10.93;76.95;101930.75;107233;1251;61947;-74
2022/10/05 01:27:32;;;;;;;5.60;2.60;;;;;;;10.92;76.88;101928.54;107235;1251;60019;-75
2022/10/05 01:30:19;;;;;;;4.40;2.30;;;;;;;10.93;76.93;101932.15;107242;1251;70954;-77
2022/10/05 01:33:28;;;;;;;4.10;2.50;;;;;;;10.92;76.83;101930.64;107157;1253;69604;-78
2022/10/05 01:36:11;;;;;;;5.80;2.80;;;;;;;10.93;76.45;101932.02;107200;1250;69862;-74
2022/10/05 01:39:38;;;;;;;3.60;2.80;;;;;;;10.93;76.46;101931.30;107173;1251;72383;-72
2022/10/05 01:42:41;;;;;;;5.10;2.70;;;;;;;10.91;76.13;101934.39;107137;1250;60707;-74
2022/10/05 01:46:06;;;;;;;5.20;2.90;;;;;;;10.89;76.61;101941.23;107003;1252;58949;-76
2022/10/05 01:48:56;;;;;;;4.50;2.80;;;;;;;10.89;77.63;101943.53;107016;1251;70910;-77
2022/10/05 01:51:46;;;;;;;3.10;2.40;;;;;;;10.90;78.54;101946.09;107047;1250;70887;-79
2022/10/05 01:54:18;;;;;;;4.40;2.40;;;;;;;10.94;78.27;101950.06;107103;1251;72176;-76
2022/10/05 01:57:15;;;;;;;4.40;2.50;;;;;;;10.95;77.18;101955.58;106873;1253;71222;-79
2022/10/05 02:00:02;;;;;;;4.30;2.90;;;;;;;11.00;80.11;101962.09;106782;1253;59445;-78
2022/10/05 02:03:05;;;;;;;5.00;3.10;;;;;;;10.98;78.72;101961.88;107072;1251;60459;-77
2022/10/05 02:05:53;;;;;;;4.40;2.30;;;;;;;10.92;78.47;101962.70;107146;1251;73392;-78
2022/10/05 02:08:37;;;;;;;3.40;2.30;;;;;;;10.84;79.30;101962.41;107235;1250;70029;-73
2022/10/05 02:11:14;;;;;;;4.00;2.40;;;;;;;10.77;79.97;101968.75;107066;1253;67899;-77
2022/10/05 02:14:06;;;;;;;3.60;2.50;;;;;;;10.69;80.22;101974.55;106763;1253;72451;-76
2022/10/05 02:16:41;;;;;;;4.90;2.60;;;;;;;10.61;80.97;101973.77;107037;1250;59067;-75
2022/10/05 02:19:24;;;;;;;4.50;3.00;;;;;;;10.56;81.29;101976.84;106888;1251;61381;-75
2022/10/05 02:22:34;;;;;;;4.20;2.70;;;;;;;10.53;82.37;101981.69;107087;1250;71415;-77
2022/10/05 02:25:11;;;;;;;4.40;2.90;;;;;;;10.53;83.50;101984.11;107093;1251;72243;-77
2022/10/05 02:27:53;;;;;;;6.50;3.00;;;;;;;10.55;84.96;101987.17;107142;1251;69808;-78
2022/10/05 02:30:23;;;;;;;4.20;2.80;;;;;;;10.58;85.33;101991.85;107125;1251;72617;-76
2022/10/05 02:33:08;;;;;;;7.70;3.10;;;;;;;10.71;85.54;101992.60;107298;1251;59773;-76
2022/10/05 02:35:37;;;;;;;3.90;2.90;;;;;;;10.73;85.60;101997.17;107153;1251;61089;-77
2022/10/05 02:38:21;;;;;;;6.20;2.60;;;;;;;10.73;85.48;102002.23;107032;1251;74499;-77
2022/10/05 02:41:15;;;;;;;4.50;2.90;;;;;;;10.74;85.03;102003.05;107173;1250;73562;-76
2022/10/05 02:43:55;;;;;;;5.40;2.80;;;;;;;10.75;85.23;102008.73;107051;1251;70242;-76
2022/10/05 02:46:43;;;;;;;6.10;3.10;;;;;;;10.74;85.03;102010.57;107060;1253;73173;-76
2022/10/05 02:49:55;;;;;;;5.50;2.70;;;;;;;10.72;85.37;102000.89;107165;1251;60268;-78
2022/10/05 02:53:15;;;;;;;8.30;3.50;;;;;;;10.70;83.65;102005.02;107083;1251;60540;-76
2022/10/05 02:56:36;;;;;;;4.50;3.20;;;;;;;10.62;84.67;101999.67;106609;1257;72398;-78
2022/10/05 02:59:50;;;;;;;7.70;3.30;;;;;;;10.59;86.44;102004.52;106474;1257;70448;-79
2022/10/05 03:03:04;;;;;;;5.60;3.30;;;;;;;10.62;86.48;102009.06;106963;1252;69800;-78
2022/10/05 03:05:59;;;;;;;7.50;3.80;;;;;;;10.64;86.80;102014.94;106903;1251;74520;-80
2022/10/05 03:08:50;;;;;;;7.70;3.70;;;;;;;10.65;86.45;102014.34;107046;1253;61765;-78
2022/10/05 03:12:01;;;;;;;7.10;3.40;;;;;;;10.60;86.76;102019.27;107039;1251;58986;-78
2022/10/05 03:14:58;;;;;;;7.20;3.50;;;;;;;10.56;86.84;102026.28;107118;1251;73466;-77
2022/10/05 03:17:43;;;;;;;5.80;3.20;;;;;;;10.53;87.13;102031.35;106933;1251;71011;-79
2022/10/05 03:20:25;;;;;;;7.10;3.90;;;;;;;10.48;86.93;102031.92;107044;1253;67946;-78
2022/10/05 03:23:00;;;;;;;6.90;3.30;;;;;;;10.42;88.07;102037.30;107043;1253;71972;-79
2022/10/05 03:25:47;;;;;;;6.70;3.00;;;;;;;10.41;87.47;102037.70;107253;1251;62951;-76
2022/10/05 03:28:24;;;;;;;6.60;3.20;;;;;;;10.43;87.10;102035.15;107228;1251;61890;-76
2022/10/05 03:31:13;;;;;;;5.50;3.60;;;;;;;10.44;87.32;102038.23;107242;1251;71439;-78
2022/10/05 03:34:21;;;;;;;6.30;4.20;;;;;;;10.43;87.14;102037.40;107185;1253;68888;-76
2022/10/05 03:37:18;;;;;;;8.40;4.00;;;;;;;10.35;86.88;102037.83;107253;1251;69761;-76
2022/10/05 03:40:11;;;;;;;6.00;3.50;;;;;;;10.30;86.15;102043.27;107083;1251;74313;-76
2022/10/05 03:43:31;;;;;;;5.20;3.20;;;;;;;10.25;85.60;102038.64;107131;1251;61696;-77
2022/10/05 03:46:35;;;;;;;7.00;3.50;;;;;;;10.17;85.15;102038.32;106938;1252;60942;-79
2022/10/05 03:49:18;;;;;;;;;;;;;;;10.14;84.89;102035.90;107128;1253;71690;-75
2022/10/05 03:52:01;;;;;;;5.10;3.60;;;;;;;10.08;85.91;102038.77;107146;1251;69707;-79
2022/10/05 03:54:42;;;;;;;9.30;3.40;;;;;;;10.06;85.07;102037.98;107186;1251;67988;-80
2022/10/05 03:57:21;;;;;;;10.10;4.30;;;;;;;10.03;85.31;102036.59;106975;1251;73913;-77
2022/10/05 04:00:24;;;;;;;8.10;3.60;;;;;;;10.02;85.22;102035.77;106998;1251;61511;-75
2022/10/05 04:03:10;;;;;;;7.70;3.80;;;;;;;10.01;83.83;102034.96;107012;1251;61734;-78
2022/10/05 04:05:57;;;;;;;6.80;3.90;;;;;;;9.95;83.46;102034.89;107220;1251;72163;-76
2022/10/05 04:09:10;;;;;;;5.60;4.10;;;;;;;9.90;82.91;102037.41;107097;1251;71464;-75
2022/10/05 04:11:59;;;;;;;6.40;3.40;;;;;;;9.83;82.93;102046.42;107253;1251;71314;-78
2022/10/05 04:14:40;;;;;;;7.10;3.60;;;;;;;9.78;83.30;102051.36;106966;1253;72436;-79
2022/10/05 04:17:15;;;;;;;7.90;4.00;;;;;;;9.73;84.31;102053.86;107172;1250;60731;-78
2022/10/05 04:20:01;;;;;;;11.00;3.90;;;;;;;9.71;84.14;102056.59;107063;1250;61765;-81
2022/10/05 04:22:39;;;;;;;6.80;4.70;;;;;;;9.68;83.55;102057.61;107342;1251;71441;-80
2022/10/05 04:25:28;;;;;;;15.60;7.30;;;;;;;9.67;85.55;102063.20;107422;1251;71030;-78
2022/10/05 04:28:12;;;;;;;23.40;10.70;;;;;;;9.80;86.69;102071.45;107518;1251;69237;-80
2022/10/05 04:30:47;;;;;;;7.20;3.90;;;;;;;9.85;86.17;102071.59;108168;1252;73214;-76
2022/10/05 04:33:16;;;;;;;13.60;6.40;;;;;;;9.87;84.27;102070.23;108415;1251;60845;-77
2022/10/05 04:36:07;;;;;;;14.30;6.80;;;;;;;9.88;84.62;102071.23;107607;1252;59418;-79
2022/10/05 04:38:48;;;;;;;12.90;6.80;;;;;;;9.93;84.85;102068.94;107311;1251;73561;-80
2022/10/05 04:41:41;;;;;;;10.90;5.90;;;;;;;9.94;84.33;102075.84;107187;1253;72574;-78
2022/10/05 04:44:34;;;;;;;6.30;4.10;;;;;;;9.99;84.05;102075.27;107331;1251;70931;-79
2022/10/05 04:47:24;;;;;;;11.40;5.00;;;;;;;10.01;83.48;102079.64;107229;1252;72403;-82
2022/10/05 04:50:02;;;;;;;7.70;4.90;;;;;;;10.09;82.43;102081.38;107114;1251;59475;-79
2022/10/05 04:52:57;;;;;;;15.00;6.30;;;;;;;10.17;82.29;102083.09;107311;1251;58938;-79
2022/10/05 04:55:39;;;;;;;10.20;6.40;;;;;;;10.24;82.86;102085.73;107273;1251;71797;-76
2022/10/05 04:58:43;;;;;;;11.80;5.10;;;;;;;10.33;81.70;102089.25;107265;1251;69715;-78
2022/10/05 05:01:43;;;;;;;11.20;5.20;;;;;;;10.47;81.41;102089.45;107375;1251;70311;-78
2022/10/05 05:05:07;;;;;;;11.70;6.20;;;;;;;10.67;81.31;102087.40;107582;1251;72692;-79
2022/10/05 05:07:48;;;;;;;19.80;11.00;;;;;;;10.81;80.94;102091.93;105801;1256;1602213;-82
2022/10/05 05:10:43;;;;;;;18.10;9.50;;;;;;;10.94;80.47;102089.88;107164;1256;60273;-84
2022/10/05 05:13:47;;;;;;;22.90;7.20;;;;;;;11.06;79.77;102090.42;107207;1251;72341;-84
2022/10/05 05:16:28;;;;;;;;;;;;;;;11.17;79.43;102088.98;107344;1251;69603;-84
2022/10/05 05:19:17;;;;;;;12.30;7.30;;;;;;;11.26;79.64;102089.02;107489;1251;70597;-84
2022/10/05 05:22:06;;;;;;;10.90;6.60;;;;;;;11.33;78.60;102092.48;107113;1252;72419;-85
2022/10/05 05:25:12;;;;;;;12.80;5.80;;;;;;;11.40;78.24;102097.86;107252;1251;60711;-85
2022/10/05 05:27:51;;;;;;;15.70;6.30;;;;;;;11.54;76.73;102097.81;107100;1251;60627;-85
2022/10/05 05:30:45;;;;;;;12.80;5.60;;;;;;;11.61;75.71;102106.13;107272;1251;73987;-84
2022/10/05 05:33:45;;;;;;;15.70;6.60;;;;;;;11.70;74.94;102102.35;107233;1251;70259;-85
2022/10/05 05:36:35;;;;;;;11.40;6.40;;;;;;;11.76;75.94;102104.10;107087;1251;68793;-88
2022/10/05 05:39:25;;;;;;;12.60;6.30;;;;;;;11.84;75.60;102105.76;107400;1251;70214;-89
2022/10/05 05:42:33;;;;;;;14.60;6.20;;;;;;;11.90;74.39;102110.30;107346;1251;60606;-85
2022/10/05 05:45:33;;;;;;;12.90;6.00;;;;;;;11.99;74.06;102110.54;107342;1250;61072;-89
2022/10/05 05:48:25;;;;;;;10.70;5.70;;;;;;;12.06;74.88;102113.45;107565;1249;74112;-89
2022/10/05 05:51:06;;;;;;;10.30;5.60;;;;;;;12.11;74.70;102109.86;107456;1249;72432;-88
2022/10/05 05:54:32;;;;;;;10.70;5.90;;;;;;;12.09;73.75;102107.89;107478;1249;68331;-86
2022/10/05 05:57:12;;;;;;;8.70;5.00;;;;;;;12.16;72.43;102109.23;107173;1250;72049;-80
2022/10/05 06:00:12;;;;;;;8.80;4.70;;;;;;;12.19;72.13;102107.67;107378;1249;63387;-82
2022/10/05 06:03:30;;;;;;;7.80;4.60;;;;;;;12.36;69.26;102114.52;107283;1250;59889;-84
2022/10/05 06:06:07;;;;;;;8.60;4.70;;;;;;;12.29;69.26;102114.60;106934;1256;74250;-82
2022/10/05 06:08:59;;;;;;;9.60;4.70;;;;;;;12.26;69.87;102119.13;106571;1256;71977;-77
2022/10/05 06:11:41;;;;;;;11.50;6.00;;;;;;;12.21;70.41;102119.42;107795;1250;69135;-76
2022/10/05 06:14:36;;;;;;;9.00;4.80;;;;;;;12.20;70.05;102126.30;107483;1250;71241;-74
2022/10/05 06:17:21;;;;;;;7.80;4.60;;;;;;;12.32;70.16;102133.29;107253;1248;61657;-76
2022/10/05 06:19:57;;;;;;;10.00;5.70;;;;;;;12.51;69.22;102138.32;107480;1250;60147;-80
2022/10/05 06:22:40;;;;;;;9.50;4.90;;;;;;;12.55;69.59;102143.89;107472;1250;73048;-78
2022/10/05 06:25:12;;;;;;;11.10;5.40;;;;;;;12.61;69.18;102149.80;107423;1250;70306;-80
2022/10/05 06:28:11;;;;;;;14.20;5.80;;;;;;;12.76;69.52;102151.69;107304;1249;67989;-77
2022/10/05 06:31:36;;;;;;;14.30;5.30;;;;;;;12.86;68.93;102153.96;107270;1250;73139;-80
2022/10/05 06:34:13;;;;;;;15.30;6.20;;;;;;;13.02;68.40;102155.95;107139;1251;60304;-77
2022/10/05 06:36:51;;;;;;;8.80;5.00;;;;;;;13.16;67.00;102160.54;107344;1250;60198;-76
2022/10/05 06:39:59;;;;;;;9.30;5.60;;;;;;;13.19;66.61;102161.71;107439;1249;73577;-80
2022/10/05 06:42:59;;;;;;;12.10;5.50;;;;;;;13.16;66.48;102173.27;107095;1250;73281;-76
2022/10/05 06:46:12;;;;;;;10.80;5.20;;;;;;;13.27;67.08;102176.49;107425;1249;69162;-78
2022/10/05 06:49:43;;;;;;;14.80;5.30;;;;;;;13.48;65.46;102173.14;107432;1248;73932;-76
2022/10/05 06:52:59;;;;;;;9.00;4.90;;;;;;;13.51;64.90;102179.73;107492;1249;61017;-76
2022/10/05 06:56:14;;;;;;;12.10;5.00;;;;;;;13.53;65.05;102181.05;107346;1250;60764;-86
2022/10/05 06:59:08;;;;;;;10.60;5.90;;;;;;;13.63;64.79;102180.57;107185;1249;72633;-78
2022/10/05 07:01:55;;;;;;;15.90;5.90;;;;;;;13.71;64.96;102183.98;106978;1251;70004;-74
2022/10/05 07:05:07;;;;;;;8.40;5.50;;;;;;;13.81;64.37;102184.40;107135;1251;68663;-79
2022/10/05 07:08:00;;;;;;;9.30;5.00;;;;;;;13.96;63.21;102186.42;107133;1249;71382;-80
2022/10/05 07:10:51;;;;;;;7.80;3.60;;;;;;;14.08;63.56;102187.06;107215;1249;61199;-75
2022/10/05 07:13:32;;;;;;;4.30;2.80;;;;;;;14.23;61.24;102193.42;107257;1250;61668;-77
2022/10/05 07:16:28;;;;;;;5.40;2.80;;;;;;;14.28;59.64;102188.89;107111;1252;72295;-78
2022/10/05 07:19:09;;;;;;;5.80;2.70;;;;;;;14.36;59.43;102189.61;106983;1250;69710;-81
2022/10/05 07:21:49;;;;;;;6.60;2.70;;;;;;;14.49;58.12;102191.76;107280;1250;70187;-82
2022/10/05 07:25:00;;;;;;;6.30;2.40;;;;;;;14.43;58.44;102188.27;107228;1249;71633;-79
2022/10/05 07:27:38;;;;;;;6.60;2.80;;;;;;;14.60;58.33;102191.08;107139;1249;60585;-79
2022/10/05 07:30:12;;;;;;;7.50;4.30;;;;;;;14.69;58.03;102187.17;107247;1249;60869;-77
2022/10/05 07:33:20;;;;;;;6.00;2.60;;;;;;;14.92;58.10;102185.05;107353;1249;74099;-77
2022/10/05 07:39:38;;;;;;;5.50;2.50;;;;;;;15.31;55.77;102186.29;107100;1250;67228;-76
2022/10/05 07:42:39;;;;;;;8.90;2.40;;;;;;;15.61;54.61;102189.98;107128;1249;73918;-77
2022/10/05 07:45:32;;;;;;;6.20;2.60;;;;;;;15.63;53.93;102193.87;107188;1249;60959;-79
2022/10/05 07:48:24;;;;;;;7.00;2.70;;;;;;;15.55;53.97;102194.92;107331;1249;60089;-79
2022/10/05 07:51:11;;;;;;;8.30;2.70;;;;;;;15.60;53.93;102193.91;107179;1249;72037;-75
2022/10/05 07:53:51;;;;;;;6.80;2.50;;;;;;;15.53;53.65;102196.20;107103;1250;72740;-77
2022/10/05 07:56:34;;;;;;;6.20;2.50;;;;;;;15.65;54.01;102202.33;106983;1251;70741;-82
2022/10/05 07:59:12;;;;;;;5.70;2.30;;;;;;;15.71;54.03;102199.84;107076;1251;74461;-80
2022/10/05 08:01:50;;;;;;;4.50;2.20;;;;;;;15.81;53.33;102190.89;107077;1250;62209;-76
2022/10/05 08:04:27;;;;;;;5.20;2.20;;;;;;;15.64;53.22;102204.50;107123;1250;61269;-82
2022/10/05 08:06:59;;;;;;;8.90;2.50;;;;;;;15.52;53.30;102208.67;107096;1252;73270;-78
2022/10/05 08:09:49;;;;;;;4.50;2.40;;;;;;;15.45;53.58;102206.73;107222;1250;71388;-77
2022/10/05 08:12:39;;;;;;;8.40;2.60;;;;;;;15.47;53.38;102196.23;107267;1252;68764;-82
2022/10/05 08:15:14;;;;;;;5.70;2.80;;;;;;;15.55;53.23;102194.92;107323;1250;75009;-81
2022/10/05 08:17:54;;;;;;;6.00;3.30;;;;;;;15.54;53.47;102189.38;107022;1250;61295;-80
2022/10/05 08:20:55;;;;;;;7.50;2.50;;;;;;;15.49;53.43;102188.14;107208;1251;60853;-78
2022/10/05 08:23:37;;;;;;;4.20;2.50;;;;;;;15.29;53.56;102184.28;107243;1252;72215;-77
2022/10/05 08:26:34;;;;;;;5.20;2.30;;;;;;;15.16;53.83;102182.20;107310;1251;70478;-77
2022/10/05 08:29:09;;;;;;;5.60;2.60;;;;;;;15.19;54.02;102185.55;107224;1252;71250;-79
2022/10/05 08:31:57;;;;;;;6.40;2.60;;;;;;;15.12;54.06;102185.31;107230;1252;72018;-77
2022/10/05 08:35:10;;;;;;;5.60;2.60;;;;;;;15.25;54.25;102183.90;107122;1252;58710;-80
2022/10/05 08:37:45;;;;;;;5.20;2.60;;;;;;;15.33;53.84;102187.19;107269;1251;60872;-77
2022/10/05 08:40:34;;;;;;;8.40;3.00;;;;;;;15.34;53.48;102189.71;107276;1252;74207;-80
2022/10/05 08:43:17;;;;;;;5.00;2.40;;;;;;;15.41;53.18;102180.98;107222;1251;70089;-81
2022/10/05 08:46:17;;;;;;;6.80;2.70;;;;;;;15.47;53.12;102178.45;107330;1251;68729;-81
2022/10/05 08:49:40;;;;;;;6.00;2.00;;;;;;;15.52;52.67;102181.45;107230;1252;74410;-79
2022/10/05 08:52:27;;;;;;;5.40;2.50;;;;;;;15.50;52.32;102179.16;107180;1249;59524;-79
2022/10/05 08:55:09;;;;;;;6.30;2.50;;;;;;;15.57;52.30;102185.98;107013;1252;61463;-79
2022/10/05 08:57:55;;;;;;;5.00;2.30;;;;;;;15.65;51.64;102183.03;107191;1252;75270;-82
2022/10/05 09:00:54;;;;;;;5.10;2.80;;;;;;;15.65;51.34;102177.98;107298;1252;70419;-80
2022/10/05 09:04:27;;;;;;;5.50;2.10;;;;;;;15.63;51.26;102179.50;107221;1252;70597;-80
2022/10/05 09:07:27;;;;;;;4.90;2.10;;;;;;;15.77;50.71;102181.85;106831;1251;74848;-82
2022/10/05 09:10:47;;;;;;;5.40;1.90;;;;;;;15.79;50.44;102184.14;106976;1252;60230;-81
2022/10/05 09:13:41;;;;;;;5.60;2.30;;;;;;;15.88;50.63;102194.59;107164;1253;61454;-81
2022/10/05 09:16:41;;;;;;;6.00;2.30;;;;;;;15.97;50.14;102201.17;107130;1252;71745;-79
2022/10/05 09:19:29;;;;;;;7.20;2.20;;;;;;;16.02;50.10;102203.26;107195;1252;72087;-77
2022/10/05 09:22:56;;;;;;;4.50;2.00;;;;;;;16.16;49.96;102214.51;106975;1254;70856;-78
2022/10/05 09:25:44;;;;;;;5.20;2.20;;;;;;;16.23;49.79;102210.55;107064;1252;74043;-79
2022/10/05 09:28:50;;;;;;;4.70;2.20;;;;;;;16.22;49.80;102205.17;107226;1252;59588;-79
2022/10/05 09:31:39;;;;;;;5.10;2.30;;;;;;;16.33;49.74;102205.58;107138;1252;60540;-81
2022/10/05 09:34:57;;;;;;;4.60;2.50;;;;;;;16.45;48.39;102209.08;107184;1252;72998;-80
2022/10/05 09:37:47;;;;;;;8.00;2.40;;;;;;;16.45;49.10;102203.64;107066;1252;71229;-80
2022/10/05 09:41:01;;;;;;;4.00;2.40;;;;;;;16.54;49.46;102187.30;107193;1252;68457;-80
2022/10/05 09:43:59;;;;;;;;;;;;;;;16.54;48.71;102198.39;107367;1251;74346;-81
2022/10/05 09:46:51;;;;;;;5.40;2.50;;;;;;;16.33;48.91;102199.05;107193;1252;60178;-80
2022/10/05 09:49:35;;;;;;;6.60;2.90;;;;;;;16.17;49.36;102193.91;107247;1251;60239;-80
2022/10/05 09:52:36;;;;;;;5.60;3.00;;;;;;;16.31;49.08;102176.72;107271;1251;73617;-83
2022/10/05 09:55:46;;;;;;;3.70;2.20;;;;;;;16.35;49.30;102167.63;107282;1250;69745;-82
2022/10/05 09:59:04;;;;;;;4.40;2.20;;;;;;;16.68;47.54;102161.49;107119;1250;68739;-80
2022/10/05 10:02:12;;;;;;;4.30;2.10;;;;;;;16.81;47.02;102155.20;107354;1249;63850;-81
2022/10/05 10:05:46;;;;;;;3.70;2.00;;;;;;;17.09;46.86;102160.13;107409;1249;59500;-80
2022/10/05 10:08:33;;;;;;;4.30;2.40;;;;;;;17.00;46.52;102165.02;107382;1249;62036;-81
2022/10/05 10:11:15;;;;;;;3.80;2.00;;;;;;;16.85;46.57;102176.56;107417;1249;63445;-75
2022/10/05 10:14:07;;;;;;;3.60;2.00;;;;;;;16.68;46.76;102175.92;107443;1249;71711;-74
2022/10/05 10:17:09;;;;;;;2.70;1.20;;;;;;;16.66;46.26;102173.35;107243;1249;69633;-76
2022/10/05 10:20:21;;;;;;;3.60;1.70;;;;;;;16.82;45.03;102171.16;107367;1249;72445;-72
2022/10/05 10:22:59;;;;;;;2.50;1.30;;;;;;;17.40;44.24;102173.91;107447;1250;59434;-79
2022/10/05 10:26:00;;;;;;;6.10;2.10;;;;;;;17.79;43.31;102171.91;107435;1250;60397;-78
2022/10/05 10:29:06;;;;;;;3.20;1.70;;;;;;;17.34;44.52;102170.16;107352;1250;74380;-79
2022/10/05 10:32:10;;;;;;;5.90;2.20;;;;;;;17.47;43.94;102167.23;107305;1251;61254;-77
2022/10/05 10:35:19;;;;;;;2.90;1.60;;;;;;;17.19;44.33;102168.99;107230;1249;69878;-74
2022/10/05 10:37:51;;;;;;;4.20;2.20;;;;;;;17.05;45.05;102169.23;107882;1250;75140;-75
2022/10/05 10:40:39;;;;;;;3.20;1.80;;;;;;;17.00;45.20;102165.63;107753;1249;60567;-76
2022/10/05 10:43:26;;;;;;;3.30;1.90;;;;;;;17.35;44.82;102162.14;107231;1249;62345;-76
2022/10/05 10:46:28;;;;;;;4.50;1.80;;;;;;;17.65;44.43;102163.50;107201;1249;72125;-75
2022/10/05 10:49:40;;;;;;;3.40;1.60;;;;;;;17.61;43.42;102165.73;107193;1250;60892;-73
2022/10/05 10:52:39;;;;;;;2.80;1.50;;;;;;;17.45;42.56;102167.52;107096;1252;60403;-72
2022/10/05 10:55:36;;;;;;;2.20;1.60;;;;;;;17.18;42.32;102165.73;107162;1249;73174;-72
2022/10/05 10:58:56;;;;;;;2.40;1.50;;;;;;;17.13;42.54;102161.97;107226;1249;62079;-73
2022/10/05 11:01:38;;;;;;;5.90;2.60;;;;;;;17.39;42.75;102153.42;107315;1250;59887;-81
2022/10/05 11:04:47;;;;;;;3.00;1.50;;;;;;;18.13;41.71;102148.35;107687;1249;74136;-90
2022/10/05 11:07:53;;;;;;;3.40;2.00;;;;;;;19.03;39.28;102132.59;107812;1249;71797;-93
2022/10/05 11:11:11;;;;;;;4.60;1.60;;;;;;;19.41;39.57;102132.23;107644;1250;61373;-91
2022/10/05 11:14:26;;;;;;;3.50;1.60;;;;;;;19.71;39.35;102133.71;108268;1249;74399;-94
2022/10/05 11:17:03;;;;;;;3.40;1.70;;;;;;;19.67;39.29;102128.78;108105;1249;61666;-91
2022/10/05 11:20:41;;;;;;;3.50;1.70;;;;;;;19.41;39.27;102125.86;107833;1250;57328;-91
2022/10/05 11:23:37;;;;;;;2.10;1.30;;;;;;;19.18;39.23;102113.80;107629;1248;74605;-91
2022/10/05 11:26:31;;;;;;;3.30;1.80;;;;;;;19.40;39.10;102104.85;107600;1251;62222;-90
2022/10/05 11:30:05;;;;;;;2.50;1.40;;;;;;;19.46;38.50;102101.25;108022;1249;69792;-91
2022/10/05 11:33:32;;;;;;;5.00;1.60;;;;;;;19.99;38.45;102096.53;109399;1249;62902;-90
2022/10/05 11:36:33;;;;;;;4.00;1.80;;;;;;;20.60;37.19;102090.80;108281;1249;58985;-89
2022/10/05 11:39:57;;;;;;;4.40;1.60;;;;;;;20.96;36.32;102089.49;107883;1250;59082;-89
2022/10/05 11:43:07;;;;;;;2.90;1.60;;;;;;;21.54;35.39;102090.89;107734;1250;71692;-90
2022/10/05 11:46:16;;;;;;;3.20;1.90;;;;;;;22.00;33.48;102085.64;107498;1250;60930;-84
2022/10/05 11:49:26;;;;;;;3.10;1.60;;;;;;;22.04;34.26;102086.45;107213;1250;60980;-81
2022/10/05 11:52:23;;;;;;;4.60;1.60;;;;;;;22.21;34.00;102092.59;107495;1249;64685;-80
2022/10/05 11:55:08;;;;;;;3.70;1.60;;;;;;;22.19;33.83;102097.23;107462;1249;59334;-78
2022/10/05 11:57:50;;;;;;;3.30;1.60;;;;;;;21.73;33.50;102094.13;107443;1249;58808;-83
2022/10/05 12:00:23;;;;;;;3.20;1.40;;;;;;;22.10;33.11;102095.10;107506;1249;63051;-85
2022/10/05 12:03:29;;;;;;;3.20;1.60;;;;;;;22.26;33.35;102095.41;107492;1249;60974;-84
2022/10/05 12:06:14;;;;;;;5.10;1.80;;;;;;;22.23;32.98;102098.41;107436;1249;59192;-90
2022/10/05 12:09:37;;;;;;;2.50;1.40;;;;;;;21.40;33.77;102099.45;107431;1249;63347;-83
2022/10/05 12:12:34;;;;;;;4.00;1.60;;;;;;;21.84;33.44;102104.06;107417;1249;58945;-84
2022/10/05 12:15:29;;;;;;;2.50;1.50;;;;;;;21.47;32.82;102103.06;107471;1250;58301;-83
2022/10/05 12:18:08;;;;;;;2.50;1.60;;;;;;;21.00;33.62;102093.56;107248;1249;71856;-83
2022/10/05 12:21:05;;;;;;;3.00;1.60;;;;;;;21.31;33.30;102093.13;107171;1250;71569;-84
2022/10/05 12:23:41;;;;;;;3.50;1.60;;;;;;;22.04;33.60;102093.73;107437;1249;59620;-84
2022/10/05 12:26:22;;;;;;;4.50;1.60;;;;;;;22.61;32.30;102093.10;107333;1252;73948;-81
2022/10/05 12:29:00;;;;;;;3.60;1.50;;;;;;;23.67;29.23;102089.62;107327;1249;61879;-78
2022/10/05 12:31:52;;;;;;;3.60;1.40;;;;;;;23.09;29.91;102091.27;107384;1249;61148;-79
2022/10/05 12:35:13;;;;;;;3.50;1.70;;;;;;;23.06;30.18;102088.73;107281;1250;73289;-86
2022/10/05 12:38:18;;;;;;;3.50;1.70;;;;;;;22.97;30.90;102087.48;107322;1249;72076;-72
2022/10/05 12:40:58;;;;;;;;;;;;;;;22.87;31.17;102084.49;107203;1249;71228;-75
2022/10/05 12:43:46;;;;;;;3.70;1.50;;;;;;;23.25;29.77;102085.87;107194;1249;74455;-72
2022/10/05 12:46:46;;;;;;;2.80;1.40;;;;;;;23.41;29.20;102085.73;107329;1250;58824;-75
2022/10/05 12:49:46;;;;;;;3.40;1.60;;;;;;;23.44;29.44;102081.55;107333;1249;61482;-72
2022/10/05 12:52:50;;;;;;;3.60;1.30;;;;;;;23.87;29.21;102071.11;107260;1249;63971;-75
2022/10/05 12:55:32;;;;;;;2.40;1.30;;;;;;;23.84;28.75;102067.88;107055;1250;61693;-73
2022/10/05 12:58:27;;;;;;;2.50;1.40;;;;;;;22.89;29.20;102070.05;107312;1250;60041;-73
2022/10/05 13:01:02;;;;;;;4.20;1.60;;;;;;;23.30;29.06;102067.98;107347;1250;62526;-73
2022/10/05 13:03:37;;;;;;;3.90;1.30;;;;;;;25.01;27.49;102074.17;107381;1249;60580;-78
2022/10/05 13:06:39;;;;;;;4.20;1.60;;;;;;;25.47;25.46;102080.20;107290;1250;57442;-79
2022/10/05 13:10:07;;;;;;;4.30;1.80;;;;;;;24.99;26.64;102085.08;107362;1249;63371;-80
2022/10/05 13:12:49;;;;;;;6.10;2.20;;;;;;;24.77;26.49;102082.43;107377;1252;61637;-80
2022/10/05 13:15:27;;;;;;;3.80;1.60;;;;;;;24.56;26.91;102078.90;107256;1250;59231;-80
2022/10/05 13:18:22;;;;;;;2.30;1.60;;;;;;;25.27;27.33;102086.61;107348;1250;63283;-81